N750GK KLAS-KPRB
Flight info
| Callsign | N750GK |
|---|---|
| Flight time | 0h 46m |
| Altitude | 30000 |
| Route | RADYR2 HEC PMD J6 AVE MAKRS |
| Aircraft | C750/M-VGDW/C |
Departure
| Time | 2026-05-06 01:28 |
|---|---|
| Airport | Harry Reid International Airport (KLAS) |
Arrival
| Time | 2026-05-06 02:14 |
|---|---|
| Airport | Paso Robles Municipal Airport (KPRB) |
| Time | Latitude | Longitude | Altitude | Speed | Heading |
|---|---|---|---|---|---|
| 2026-05-06 01:20 | 36.09700 | -115.16222 | 2184 ft | 0 kts | 269° |
| 2026-05-06 01:24 | 36.09704 | -115.16230 | 2187 ft | 3 kts | 314° |
| 2026-05-06 01:24 | 36.09715 | -115.16208 | 2184 ft | 6 kts | 82° |
| 2026-05-06 01:25 | 36.09756 | -115.16142 | 2184 ft | 12 kts | 49° |
| 2026-05-06 01:25 | 36.09779 | -115.16050 | 2184 ft | 11 kts | 106° |
| 2026-05-06 01:25 | 36.09796 | -115.15982 | 2185 ft | 8 kts | 22° |
| 2026-05-06 01:25 | 36.09853 | -115.15949 | 2188 ft | 10 kts | 26° |
| 2026-05-06 01:26 | 36.09910 | -115.15916 | 2184 ft | 9 kts | 24° |
| 2026-05-06 01:26 | 36.09950 | -115.15873 | 2186 ft | 7 kts | 69° |
| 2026-05-06 01:26 | 36.09967 | -115.15816 | 2184 ft | 7 kts | 70° |
| 2026-05-06 01:26 | 36.09981 | -115.15765 | 2184 ft | 6 kts | 75° |
| 2026-05-06 01:27 | 36.09971 | -115.15710 | 2186 ft | 8 kts | 113° |
| 2026-05-06 01:27 | 36.09928 | -115.15666 | 2184 ft | 8 kts | 194° |
| 2026-05-06 01:27 | 36.09728 | -115.15780 | 2186 ft | 85 kts | 205° |
| 2026-05-06 01:27 | 36.08921 | -115.16244 | 2270 ft | 152 kts | 202° |
| 2026-05-06 01:28 | 36.07919 | -115.16833 | 2911 ft | 166 kts | 204° |
| 2026-05-06 01:28 | 36.06849 | -115.17409 | 3750 ft | 168 kts | 206° |
| 2026-05-06 01:28 | 36.05790 | -115.17979 | 4615 ft | 168 kts | 207° |
| 2026-05-06 01:28 | 36.04709 | -115.18568 | 5476 ft | 171 kts | 206° |
| 2026-05-06 01:29 | 36.03619 | -115.19161 | 6360 ft | 171 kts | 206° |
| 2026-05-06 01:29 | 36.02527 | -115.19757 | 7215 ft | 172 kts | 207° |
| 2026-05-06 01:29 | 36.01404 | -115.20372 | 7991 ft | 186 kts | 206° |
| 2026-05-06 01:29 | 36.00118 | -115.21035 | 8521 ft | 214 kts | 200° |
| 2026-05-06 01:30 | 35.98624 | -115.21677 | 9088 ft | 240 kts | 201° |
| 2026-05-06 01:30 | 35.97006 | -115.22446 | 9609 ft | 265 kts | 202° |
| 2026-05-06 01:30 | 35.95199 | -115.23287 | 10070 ft | 290 kts | 201° |
| 2026-05-06 01:30 | 35.93221 | -115.24176 | 10431 ft | 316 kts | 200° |
| 2026-05-06 01:31 | 35.91065 | -115.25145 | 10702 ft | 342 kts | 201° |
| 2026-05-06 01:31 | 35.88748 | -115.26200 | 10983 ft | 364 kts | 200° |
| 2026-05-06 01:31 | 35.86363 | -115.27285 | 11756 ft | 368 kts | 200° |
| 2026-05-06 01:31 | 35.83950 | -115.28378 | 12576 ft | 370 kts | 200° |
| 2026-05-06 01:32 | 35.81504 | -115.29484 | 13242 ft | 378 kts | 200° |
| 2026-05-06 01:32 | 35.79018 | -115.30609 | 13959 ft | 382 kts | 200° |
| 2026-05-06 01:32 | 35.76511 | -115.31745 | 14642 ft | 386 kts | 200° |
| 2026-05-06 01:32 | 35.74010 | -115.32875 | 15323 ft | 389 kts | 200° |
| 2026-05-06 01:33 | 35.71456 | -115.34028 | 16041 ft | 392 kts | 200° |
| 2026-05-06 01:33 | 35.68879 | -115.35191 | 16765 ft | 395 kts | 200° |
| 2026-05-06 01:33 | 35.66273 | -115.36367 | 17484 ft | 399 kts | 199° |
| 2026-05-06 01:33 | 35.63682 | -115.37534 | 18214 ft | 403 kts | 199° |
| 2026-05-06 01:34 | 35.61135 | -115.39028 | 18739 ft | 410 kts | 213° |
| 2026-05-06 01:34 | 35.58988 | -115.41348 | 19417 ft | 413 kts | 227° |
| 2026-05-06 01:34 | 35.57042 | -115.43971 | 20073 ft | 418 kts | 229° |
| 2026-05-06 01:34 | 35.55094 | -115.46658 | 20721 ft | 423 kts | 228° |
| 2026-05-06 01:35 | 35.53105 | -115.49355 | 21367 ft | 428 kts | 227° |
| 2026-05-06 01:35 | 35.51075 | -115.52066 | 22003 ft | 434 kts | 227° |
| 2026-05-06 01:35 | 35.49027 | -115.54820 | 22619 ft | 439 kts | 227° |
| 2026-05-06 01:35 | 35.46992 | -115.57579 | 23242 ft | 444 kts | 227° |
| 2026-05-06 01:36 | 35.44902 | -115.60400 | 23760 ft | 450 kts | 227° |
| 2026-05-06 01:36 | 35.42778 | -115.63250 | 24239 ft | 455 kts | 227° |
| 2026-05-06 01:36 | 35.40623 | -115.66141 | 24655 ft | 462 kts | 227° |
| 2026-05-06 01:36 | 35.38442 | -115.69075 | 25114 ft | 468 kts | 227° |
| 2026-05-06 01:37 | 35.36230 | -115.72049 | 25578 ft | 474 kts | 227° |
| 2026-05-06 01:37 | 35.33993 | -115.75044 | 26050 ft | 479 kts | 227° |
| 2026-05-06 01:37 | 35.31708 | -115.78062 | 26495 ft | 485 kts | 226° |
| 2026-05-06 01:37 | 35.29377 | -115.81084 | 27070 ft | 488 kts | 226° |
| 2026-05-06 01:38 | 35.27044 | -115.84125 | 27619 ft | 492 kts | 226° |
| 2026-05-06 01:38 | 35.24732 | -115.87175 | 28055 ft | 498 kts | 226° |
| 2026-05-06 01:38 | 35.22357 | -115.90299 | 28531 ft | 503 kts | 226° |
| 2026-05-06 01:38 | 35.19946 | -115.93439 | 28983 ft | 509 kts | 226° |
| 2026-05-06 01:39 | 35.17509 | -115.96629 | 29390 ft | 516 kts | 226° |
| 2026-05-06 01:39 | 35.15062 | -115.99889 | 29748 ft | 523 kts | 226° |
| 2026-05-06 01:39 | 35.12574 | -116.03206 | 29871 ft | 534 kts | 226° |
| 2026-05-06 01:39 | 35.10045 | -116.06526 | 29883 ft | 547 kts | 226° |
| 2026-05-06 01:40 | 35.07418 | -116.09963 | 29884 ft | 559 kts | 226° |
| 2026-05-06 01:40 | 35.04747 | -116.13484 | 29884 ft | 570 kts | 226° |
| 2026-05-06 01:40 | 34.99287 | -116.20682 | 29875 ft | 582 kts | 226° |
| 2026-05-06 01:41 | 34.96534 | -116.24281 | 29867 ft | 571 kts | 226° |
| 2026-05-06 01:41 | 34.93843 | -116.27808 | 29852 ft | 566 kts | 226° |
| 2026-05-06 01:41 | 34.88480 | -116.34837 | 29862 ft | 567 kts | 226° |
| 2026-05-06 01:42 | 34.83381 | -116.42142 | 29868 ft | 572 kts | 236° |
| 2026-05-06 01:42 | 34.79878 | -116.50828 | 29879 ft | 574 kts | 252° |
| 2026-05-06 01:43 | 34.78341 | -116.60295 | 29905 ft | 568 kts | 266° |
| 2026-05-06 01:43 | 34.77406 | -116.69800 | 29924 ft | 570 kts | 265° |
| 2026-05-06 01:44 | 34.76455 | -116.79372 | 29924 ft | 569 kts | 265° |
| 2026-05-06 01:44 | 34.75504 | -116.88932 | 29911 ft | 558 kts | 265° |
| 2026-05-06 01:45 | 34.75034 | -116.93516 | 30163 ft | 537 kts | 265° |
| 2026-05-06 01:45 | 34.74592 | -116.97912 | 31413 ft | 510 kts | 265° |
| 2026-05-06 01:45 | 34.74172 | -117.02113 | 32544 ft | 492 kts | 265° |
| 2026-05-06 01:45 | 34.73758 | -117.06210 | 33261 ft | 485 kts | 265° |
| 2026-05-06 01:46 | 34.73344 | -117.10258 | 33857 ft | 482 kts | 264° |
| 2026-05-06 01:46 | 34.72930 | -117.14300 | 33890 ft | 494 kts | 265° |
| 2026-05-06 01:46 | 34.72502 | -117.18497 | 33887 ft | 506 kts | 265° |
| 2026-05-06 01:46 | 34.72061 | -117.22785 | 33978 ft | 516 kts | 264° |
| 2026-05-06 01:47 | 34.71149 | -117.31561 | 34010 ft | 529 kts | 264° |
| 2026-05-06 01:47 | 34.70219 | -117.40494 | 34011 ft | 535 kts | 264° |
| 2026-05-06 01:48 | 34.69273 | -117.49493 | 33997 ft | 542 kts | 264° |
| 2026-05-06 01:48 | 34.68309 | -117.58612 | 33979 ft | 545 kts | 264° |
| 2026-05-06 01:49 | 34.67501 | -117.66200 | 33967 ft | 545 kts | 264° |
| 2026-05-06 01:49 | 34.66522 | -117.75329 | 33930 ft | 545 kts | 264° |
| 2026-05-06 01:50 | 34.65536 | -117.84462 | 33983 ft | 546 kts | 264° |
| 2026-05-06 01:50 | 34.64586 | -117.93607 | 33982 ft | 544 kts | 267° |
| 2026-05-06 01:51 | 34.65086 | -118.02775 | 33999 ft | 538 kts | 283° |
| 2026-05-06 01:51 | 34.67525 | -118.11288 | 33995 ft | 531 kts | 299° |
| 2026-05-06 01:52 | 34.71647 | -118.18645 | 33994 ft | 525 kts | 313° |
| 2026-05-06 01:52 | 34.76365 | -118.25456 | 33998 ft | 528 kts | 314° |
| 2026-05-06 01:53 | 34.81096 | -118.32314 | 34000 ft | 529 kts | 314° |
| 2026-05-06 01:53 | 34.85832 | -118.39178 | 33986 ft | 525 kts | 314° |
| 2026-05-06 01:54 | 34.90502 | -118.45971 | 34027 ft | 526 kts | 314° |
| 2026-05-06 01:54 | 34.95207 | -118.52820 | 34040 ft | 527 kts | 314° |
| 2026-05-06 01:55 | 34.99908 | -118.59691 | 34050 ft | 527 kts | 313° |
| 2026-05-06 01:55 | 35.03908 | -118.67258 | 34034 ft | 532 kts | 304° |
| 2026-05-06 01:56 | 35.07585 | -118.75005 | 34043 ft | 533 kts | 305° |
| 2026-05-06 01:56 | 35.11313 | -118.82887 | 34002 ft | 531 kts | 304° |
| 2026-05-06 01:57 | 35.13092 | -118.86701 | 33296 ft | 503 kts | 305° |
| 2026-05-06 01:57 | 35.14798 | -118.90325 | 32671 ft | 484 kts | 306° |
| 2026-05-06 01:57 | 35.16492 | -118.93873 | 32045 ft | 486 kts | 307° |
| 2026-05-06 01:57 | 35.18198 | -118.97472 | 31389 ft | 488 kts | 307° |
| 2026-05-06 01:58 | 35.19887 | -119.01096 | 30745 ft | 494 kts | 307° |
| 2026-05-06 01:58 | 35.21573 | -119.04709 | 30089 ft | 493 kts | 308° |
| 2026-05-06 01:58 | 35.23270 | -119.08324 | 29397 ft | 486 kts | 308° |
| 2026-05-06 01:58 | 35.24947 | -119.11891 | 28768 ft | 481 kts | 308° |
| 2026-05-06 01:59 | 35.26604 | -119.15429 | 28139 ft | 476 kts | 307° |
| 2026-05-06 01:59 | 35.28241 | -119.18940 | 27516 ft | 470 kts | 307° |
| 2026-05-06 01:59 | 35.29855 | -119.22396 | 26903 ft | 465 kts | 307° |
| 2026-05-06 01:59 | 35.31432 | -119.25772 | 26293 ft | 459 kts | 307° |
| 2026-05-06 02:00 | 35.33002 | -119.29138 | 25711 ft | 453 kts | 306° |
| 2026-05-06 02:00 | 35.34556 | -119.32478 | 25046 ft | 447 kts | 307° |
| 2026-05-06 02:00 | 35.36094 | -119.35784 | 24472 ft | 444 kts | 306° |
| 2026-05-06 02:00 | 35.37616 | -119.39058 | 23895 ft | 439 kts | 306° |
| 2026-05-06 02:01 | 35.39117 | -119.42290 | 23279 ft | 434 kts | 306° |
| 2026-05-06 02:01 | 35.40604 | -119.45497 | 22707 ft | 429 kts | 306° |
| 2026-05-06 02:01 | 35.42054 | -119.48624 | 22154 ft | 426 kts | 305° |
| 2026-05-06 02:01 | 35.43510 | -119.51768 | 21599 ft | 422 kts | 305° |
| 2026-05-06 02:02 | 35.44949 | -119.54881 | 21036 ft | 416 kts | 306° |
| 2026-05-06 02:02 | 35.46360 | -119.57936 | 20506 ft | 410 kts | 305° |
| 2026-05-06 02:02 | 35.47759 | -119.60962 | 19978 ft | 405 kts | 305° |
| 2026-05-06 02:02 | 35.49146 | -119.63966 | 19450 ft | 400 kts | 305° |
| 2026-05-06 02:03 | 35.50513 | -119.66933 | 18934 ft | 396 kts | 305° |
| 2026-05-06 02:03 | 35.51850 | -119.69837 | 18426 ft | 393 kts | 304° |
| 2026-05-06 02:03 | 35.53188 | -119.72744 | 17889 ft | 389 kts | 304° |
| 2026-05-06 02:03 | 35.54516 | -119.75630 | 17382 ft | 387 kts | 304° |
| 2026-05-06 02:04 | 35.55837 | -119.78507 | 16877 ft | 385 kts | 304° |
| 2026-05-06 02:04 | 35.57150 | -119.81368 | 16383 ft | 383 kts | 303° |
| 2026-05-06 02:04 | 35.58450 | -119.84205 | 15873 ft | 378 kts | 303° |
| 2026-05-06 02:04 | 35.59741 | -119.87024 | 15381 ft | 376 kts | 303° |
| 2026-05-06 02:05 | 35.61009 | -119.89787 | 14891 ft | 374 kts | 303° |
| 2026-05-06 02:05 | 35.62285 | -119.92575 | 14399 ft | 372 kts | 303° |
| 2026-05-06 02:05 | 35.63547 | -119.95340 | 13927 ft | 369 kts | 303° |
| 2026-05-06 02:05 | 35.64622 | -119.98198 | 13370 ft | 371 kts | 290° |
| 2026-05-06 02:06 | 35.65059 | -120.01326 | 12929 ft | 373 kts | 280° |
| 2026-05-06 02:06 | 35.65356 | -120.04482 | 12443 ft | 370 kts | 279° |
| 2026-05-06 02:06 | 35.65654 | -120.07610 | 11970 ft | 367 kts | 280° |
| 2026-05-06 02:06 | 35.65960 | -120.10672 | 11499 ft | 364 kts | 279° |
| 2026-05-06 02:07 | 35.66203 | -120.13743 | 11028 ft | 353 kts | 279° |
| 2026-05-06 02:07 | 35.66387 | -120.16663 | 10537 ft | 332 kts | 278° |
| 2026-05-06 02:07 | 35.66542 | -120.19418 | 10161 ft | 313 kts | 278° |
| 2026-05-06 02:07 | 35.66685 | -120.22053 | 9851 ft | 307 kts | 278° |
| 2026-05-06 02:08 | 35.66830 | -120.24658 | 9466 ft | 302 kts | 278° |
| 2026-05-06 02:08 | 35.66979 | -120.27209 | 9093 ft | 296 kts | 278° |
| 2026-05-06 02:08 | 35.67133 | -120.29723 | 8733 ft | 294 kts | 278° |
| 2026-05-06 02:08 | 35.67294 | -120.32217 | 8364 ft | 291 kts | 278° |
| 2026-05-06 02:09 | 35.67466 | -120.34675 | 8030 ft | 286 kts | 278° |
| 2026-05-06 02:09 | 35.67650 | -120.37104 | 7762 ft | 285 kts | 278° |
| 2026-05-06 02:09 | 35.67839 | -120.39514 | 7560 ft | 282 kts | 278° |
| 2026-05-06 02:09 | 35.68030 | -120.41939 | 7398 ft | 285 kts | 278° |
| 2026-05-06 02:10 | 35.68216 | -120.44344 | 7245 ft | 284 kts | 278° |
| 2026-05-06 02:10 | 35.68394 | -120.46675 | 7153 ft | 256 kts | 278° |
| 2026-05-06 02:10 | 35.68547 | -120.48758 | 7009 ft | 236 kts | 279° |
| 2026-05-06 02:10 | 35.68769 | -120.50722 | 6430 ft | 229 kts | 281° |
| 2026-05-06 02:11 | 35.69050 | -120.52597 | 5798 ft | 210 kts | 282° |
| 2026-05-06 02:11 | 35.69471 | -120.54137 | 5213 ft | 175 kts | 303° |
| 2026-05-06 02:11 | 35.70161 | -120.55255 | 4668 ft | 157 kts | 311° |
| 2026-05-06 02:11 | 35.70825 | -120.56282 | 3981 ft | 154 kts | 310° |
| 2026-05-06 02:12 | 35.71350 | -120.57415 | 3199 ft | 155 kts | 293° |
| 2026-05-06 02:12 | 35.71454 | -120.58733 | 2446 ft | 157 kts | 268° |
| 2026-05-06 02:12 | 35.71072 | -120.59956 | 1973 ft | 152 kts | 243° |
| 2026-05-06 02:12 | 35.70397 | -120.60927 | 1567 ft | 145 kts | 223° |
| 2026-05-06 02:13 | 35.69584 | -120.61553 | 1301 ft | 131 kts | 211° |
| 2026-05-06 02:13 | 35.68818 | -120.62091 | 1074 ft | 126 kts | 212° |
| 2026-05-06 02:13 | 35.68061 | -120.62591 | 847 ft | 121 kts | 210° |
| 2026-05-06 02:13 | 35.67405 | -120.63031 | 822 ft | 84 kts | 208° |
| 2026-05-06 02:14 | 35.67085 | -120.63243 | 824 ft | 27 kts | 208° |
| 2026-05-06 02:14 | 35.67013 | -120.63348 | 824 ft | 13 kts | 266° |
| 2026-05-06 02:14 | 35.67012 | -120.63410 | 823 ft | 0 kts | 270° |
| 2026-05-06 02:14 | 35.67012 | -120.63411 | 823 ft | 0 kts | 270° |